Time;durP1;ratioP1;P1;durP2;ratioP2;P2;SDS_P1;SDS_P2;PMS_P1;PMS_P2;Temp;Humidity;BMP_temperature;BMP_pressure;BME280_temperature;BME280_humidity;BME280_pressure;Samples;Min_cycle;Max_cycle;Signal;HPM_P1;HPM_P2
2023/03/18 07:38:24;;;;;;;;;;;;;;;11.81;52.94;96664.94;4246806;27;10359;-71
2023/03/18 07:40:27;;;;;;;;;;;;;;;12.14;52.96;96670.22;4247536;27;5733;-70
2023/03/18 07:42:30;;;;;;;;;;;;;;;12.39;52.74;96667.72;4247244;27;5740;-69
2023/03/18 07:44:32;;;;;;;;;;;;;;;12.58;52.19;96661.56;4246101;27;5794;-70
2023/03/18 07:46:36;;;;;;;;;;;;;;;12.72;52.08;96654.38;4246121;27;5796;-70
2023/03/18 07:48:39;;;;;;;;;;;;;;;12.91;51.98;96660.59;4247375;27;5649;-71
2023/03/18 07:50:42;;;;;;;;;;;;;;;13.04;51.34;96655.25;4247374;27;5658;-71
2023/03/18 07:52:44;;;;;;;;;;;;;;;13.17;51.22;96659.69;4247480;27;5674;-71
2023/03/18 07:54:49;;;;;;;;;;;;;;;13.26;50.98;96661.91;4247099;27;5705;-72
2023/03/18 07:56:52;;;;;;;;;;;;;;;13.32;51.01;96661.03;4247061;27;5662;-71
2023/03/18 07:58:55;;;;;;;;;;;;;;;13.39;50.90;96669.78;4247243;27;6375;-72
2023/03/18 08:00:58;;;;;;;;;;;;;;;13.41;50.78;96669.56;4247733;27;5693;-71
2023/03/18 08:03:02;;;;;;;;;;;;;;;13.45;50.80;96672.59;4247642;27;5638;-70
2023/03/18 08:05:06;;;;;;;;;;;;;;;13.47;50.82;96665.22;4247166;27;5645;-71
2023/03/18 08:07:10;;;;;;;;;;;;;;;13.48;50.68;96670.34;4247236;27;5642;-71
2023/03/18 08:09:13;;;;;;;;;;;;;;;13.47;50.75;96673.19;4247559;27;5677;-71
2023/03/18 08:11:17;;;;;;;;;;;;;;;13.47;50.42;96675.84;4247394;27;5646;-71
2023/03/18 08:13:20;;;;;;;;;;;;;;;13.48;50.17;96669.50;4246785;27;5653;-71
2023/03/18 08:15:24;;;;;;;;;;;;;;;13.48;50.30;96673.00;4245494;27;5761;-71
2023/03/18 08:17:28;;;;;;;;;;;;;;;13.53;50.01;96680.31;4246967;27;5654;-71
2023/03/18 08:19:31;;;;;;;;;;;;;;;13.52;49.71;96684.00;4246937;27;5638;-70
2023/03/18 08:21:35;;;;;;;;;;;;;;;13.50;49.97;96680.75;4247047;27;5658;-71
2023/03/18 08:23:41;;;;;;;;;;;;;;;13.50;49.70;96683.41;4247220;27;5821;-71
2023/03/18 08:25:48;;;;;;;;;;;;;;;13.51;49.72;96682.38;4247100;27;5650;-71
2023/03/18 08:27:52;;;;;;;;;;;;;;;13.50;49.48;96680.75;4241955;27;5748;-71
2023/03/18 08:29:55;;;;;;;;;;;;;;;13.49;49.66;96687.09;4246668;27;5752;-71
2023/03/18 08:32:00;;;;;;;;;;;;;;;13.52;49.53;96689.31;4246871;27;5795;-70
2023/03/18 08:34:03;;;;;;;;;;;;;;;13.54;49.34;96687.25;4246776;27;5641;-71
2023/03/18 08:36:07;;;;;;;;;;;;;;;13.60;49.21;96691.72;4246573;27;6339;-70
2023/03/18 08:38:10;;;;;;;;;;;;;;;13.58;49.25;96680.47;4241658;27;5800;-71
2023/03/18 08:40:13;;;;;;;;;;;;;;;13.59;49.38;96690.06;4233973;28;5598;-71
2023/03/18 08:42:17;;;;;;;;;;;;;;;13.60;48.88;96691.72;4235537;27;5642;-71
2023/03/18 08:44:22;;;;;;;;;;;;;;;13.61;48.84;96694.16;4234893;28;5638;-71
2023/03/18 08:46:25;;;;;;;;;;;;;;;13.64;48.83;96682.28;4226959;28;5828;-71
2023/03/18 08:48:28;;;;;;;;;;;;;;;13.64;48.94;96684.94;4234893;28;5746;-71
2023/03/18 08:50:31;;;;;;;;;;;;;;;13.65;48.59;96678.59;4235150;28;5650;-72
2023/03/18 08:52:34;;;;;;;;;;;;;;;13.66;48.49;96683.69;4234771;27;5650;-72
2023/03/18 08:54:36;;;;;;;;;;;;;;;13.68;48.22;96686.13;4235155;28;5650;-70
2023/03/18 08:56:39;;;;;;;;;;;;;;;13.69;48.39;96690.41;4234706;28;5773;-70
2023/03/18 08:58:44;;;;;;;;;;;;;;;13.71;47.93;96696.34;4234730;28;5746;-70
2023/03/18 09:00:49;;;;;;;;;;;;;;;13.72;48.14;96691.84;4235261;28;6778;-71
2023/03/18 09:02:52;;;;;;;;;;;;;;;13.73;48.09;96686.31;4235579;27;5733;-70
2023/03/18 09:04:56;;;;;;;;;;;;;;;13.74;47.70;96676.50;4234982;27;5733;-76
2023/03/18 09:06:59;;;;;;;;;;;;;;;13.77;47.76;96673.41;4234715;28;5713;-69
2023/03/18 09:09:02;;;;;;;;;;;;;;;13.79;47.72;96669.50;4235219;28;5739;-67
2023/03/18 09:11:06;;;;;;;;;;;;;;;13.79;47.39;96660.72;4235232;27;6510;-72
2023/03/18 09:13:09;;;;;;;;;;;;;;;13.86;47.67;96654.34;4233469;28;5748;-68
2023/03/18 09:15:14;;;;;;;;;;;;;;;13.91;47.23;96651.00;4234652;28;5782;-69
2023/03/18 09:17:18;;;;;;;;;;;;;;;13.93;47.32;96651.59;4234687;27;5664;-82
2023/03/18 09:19:21;;;;;;;;;;;;;;;13.95;47.28;96652.22;4226366;28;5762;-67
2023/03/18 09:21:24;;;;;;;;;;;;;;;14.00;46.97;96647.06;4234980;28;5869;-72
2023/03/18 09:23:27;;;;;;;;;;;;;;;14.03;47.14;96653.78;4234535;28;5650;-72
2023/03/18 09:25:31;;;;;;;;;;;;;;;14.05;47.02;96643.75;4235444;27;5654;-76
2023/03/18 09:27:34;;;;;;;;;;;;;;;14.09;46.96;96653.72;4234450;27;5748;-74
2023/03/18 09:29:37;;;;;;;;;;;;;;;14.13;47.13;96644.28;4234792;28;6444;-74
2023/03/18 09:31:40;;;;;;;;;;;;;;;14.16;46.79;96635.06;4234741;28;5737;-74
2023/03/18 09:33:45;;;;;;;;;;;;;;;14.14;46.90;96637.13;4234570;27;5666;-72
2023/03/18 09:35:49;;;;;;;;;;;;;;;14.13;47.01;96638.16;4227186;27;5737;-75
2023/03/18 09:37:52;;;;;;;;;;;;;;;14.15;46.60;96642.19;4223470;28;5737;-77
2023/03/18 09:39:55;;;;;;;;;;;;;;;14.20;46.56;96644.22;4222560;28;5650;-74
2023/03/18 09:42:10;;;;;;;;;;;;;;;14.21;46.44;96635.22;4228970;28;5749;-74
2023/03/18 09:44:21;;;;;;;;;;;;;;;14.22;46.72;96639.50;4229471;28;5851;-74
2023/03/18 09:46:32;;;;;;;;;;;;;;;14.24;46.33;96640.09;4222489;28;7726;-73
2023/03/18 09:48:56;;;;;;;;;;;;;;;14.25;46.51;96641.72;4234460;27;5873;-73
2023/03/18 09:51:09;;;;;;;;;;;;;;;14.27;46.35;96647.66;4231104;28;5728;-73
2023/03/18 09:53:18;;;;;;;;;;;;;;;14.27;46.22;96639.66;4233238;28;5757;-74
2023/03/18 09:55:27;;;;;;;;;;;;;;;14.24;46.20;96637.44;4230587;28;5685;-73
2023/03/18 09:57:33;;;;;;;;;;;;;;;14.24;46.12;96646.22;4229398;28;5665;-73
2023/03/18 09:59:39;;;;;;;;;;;;;;;14.25;46.47;96637.19;4233377;28;5742;-73
2023/03/18 10:01:44;;;;;;;;;;;;;;;14.28;46.03;96641.28;4230805;28;5128;-73
2023/03/18 10:03:56;;;;;;;;;;;;;;;14.29;46.30;96634.94;4224069;28;7687;-74
2023/03/18 10:06:05;;;;;;;;;;;;;;;14.32;46.16;96639.81;4221973;27;5656;-74
2023/03/18 10:08:20;;;;;;;;;;;;;;;14.36;46.19;96638.31;4224637;28;5741;-72
2023/03/18 10:10:28;;;;;;;;;;;;;;;14.39;46.29;96634.44;4227480;28;5662;-73
2023/03/18 10:12:32;;;;;;;;;;;;;;;14.39;45.85;96631.78;4227749;27;6336;-73
2023/03/18 10:14:41;;;;;;;;;;;;;;;14.35;45.85;96636.69;4233804;27;5642;-73
2023/03/18 10:16:55;;;;;;;;;;;;;;;14.37;45.95;96633.81;4233093;28;5749;-72
2023/03/18 10:19:00;;;;;;;;;;;;;;;14.36;45.76;96632.19;4227566;28;5745;-72
2023/03/18 10:21:20;;;;;;;;;;;;;;;14.36;45.75;96643.63;4231208;27;5740;-71
2023/03/18 10:23:34;;;;;;;;;;;;;;;14.38;45.82;96636.25;4229119;28;5797;-67
2023/03/18 10:25:43;;;;;;;;;;;;;;;14.40;45.95;96638.72;4228382;28;5649;-76
2023/03/18 10:28:09;;;;;;;;;;;;;;;14.43;45.72;96633.75;4230814;27;6047;-76
2023/03/18 10:30:29;;;;;;;;;;;;;;;14.44;45.69;96640.72;4232714;27;5826;-72
2023/03/18 10:32:39;;;;;;;;;;;;;;;14.44;45.90;96639.88;4224497;28;5671;-69
2023/03/18 10:35:08;;;;;;;;;;;;;;;14.48;45.94;96641.91;4225886;28;6478;-80
2023/03/18 10:37:19;;;;;;;;;;;;;;;14.50;45.76;96647.84;4228267;27;5797;-70
2023/03/18 10:39:24;;;;;;;;;;;;;;;14.50;45.80;96639.84;4230192;28;5744;-70
2023/03/18 10:41:32;;;;;;;;;;;;;;;14.52;45.72;96636.97;4223968;28;5850;-73
2023/03/18 10:43:40;;;;;;;;;;;;;;;14.54;45.58;96641.03;4233331;27;5824;-72
2023/03/18 10:45:44;;;;;;;;;;;;;;;14.55;45.50;96626.69;4229505;28;5828;-72
2023/03/18 10:47:54;;;;;;;;;;;;;;;14.58;45.67;96630.75;4222153;28;5722;-73
2023/03/18 10:50:06;;;;;;;;;;;;;;;14.61;45.51;96635.66;4227580;28;5666;-73
2023/03/18 10:52:17;;;;;;;;;;;;;;;14.61;45.32;96635.66;4232438;28;5662;-71
2023/03/18 10:54:24;;;;;;;;;;;;;;;14.62;45.23;96639.13;4226970;28;5118;-72
2023/03/18 10:56:27;;;;;;;;;;;;;;;14.65;45.31;96638.66;4230515;28;5780;-66
2023/03/18 10:58:30;;;;;;;;;;;;;;;14.63;45.08;96633.56;4232751;27;5866;-70
2023/03/18 11:00:34;;;;;;;;;;;;;;;14.66;44.88;96629.66;4230012;28;5651;-72
2023/03/18 11:02:42;;;;;;;;;;;;;;;14.70;44.75;96638.81;4232286;28;5658;-71
2023/03/18 11:04:53;;;;;;;;;;;;;;;14.71;44.59;96632.44;4230307;28;5685;-71
2023/03/18 11:07:00;;;;;;;;;;;;;;;14.71;44.68;96632.44;4234194;28;5646;-66
2023/03/18 11:09:07;;;;;;;;;;;;;;;14.79;44.51;96635.63;4230637;28;5805;-67
2023/03/18 11:11:22;;;;;;;;;;;;;;;14.82;44.25;96632.50;4231981;28;5724;-68
2023/03/18 11:13:26;;;;;;;;;;;;;;;14.85;44.47;96636.59;4226318;28;5692;-67
2023/03/18 11:15:36;;;;;;;;;;;;;;;14.86;44.12;96640.88;4239681;28;6802;-80
2023/03/18 11:17:39;;;;;;;;;;;;;;;14.84;44.19;96643.75;4242022;28;5765;-79
2023/03/18 11:19:47;;;;;;;;;;;;;;;14.86;44.44;96643.53;4240088;28;5705;-75
2023/03/18 11:22:03;;;;;;;;;;;;;;;14.87;44.39;96639.84;4233809;28;5642;-72
2023/03/18 11:24:34;;;;;;;;;;;;;;;14.88;44.09;96637.97;4230440;28;5676;-75
2023/03/18 11:26:52;;;;;;;;;;;;;;;14.90;44.02;96639.38;4228364;28;6445;-73
2023/03/18 11:28:57;;;;;;;;;;;;;;;14.93;44.22;96640.78;4225449;28;5851;-72
2023/03/18 11:31:05;;;;;;;;;;;;;;;14.94;43.75;96632.56;4228179;28;5674;-72
2023/03/18 11:33:15;;;;;;;;;;;;;;;14.94;44.16;96627.25;4224031;28;5134;-70
2023/03/18 11:35:21;;;;;;;;;;;;;;;14.98;44.04;96627.63;4231288;28;7742;-71
2023/03/18 11:37:32;;;;;;;;;;;;;;;15.02;44.07;96624.28;4225904;28;5855;-72
2023/03/18 11:39:37;;;;;;;;;;;;;;;15.07;44.01;96621.75;4232826;27;5717;-72
2023/03/18 11:41:40;;;;;;;;;;;;;;;15.13;43.89;96617.38;4232775;27;5754;-72
2023/03/18 11:43:55;;;;;;;;;;;;;;;15.22;43.84;96617.88;4224006;28;6358;-72
2023/03/18 11:46:02;;;;;;;;;;;;;;;15.27;43.61;96625.97;4232444;28;5654;-72
2023/03/18 11:48:06;;;;;;;;;;;;;;;15.30;43.76;96622.88;4229798;28;5905;-73
2023/03/18 11:50:19;;;;;;;;;;;;;;;15.34;43.60;96616.06;4231745;28;5630;-70
2023/03/18 11:52:37;;;;;;;;;;;;;;;15.37;43.59;96621.75;4224609;28;5725;-72
2023/03/18 11:55:01;;;;;;;;;;;;;;;15.39;43.26;96619.66;4230855;28;5860;-71
2023/03/18 11:57:11;;;;;;;;;;;;;;;15.41;43.39;96614.13;4232584;28;5764;-70
2023/03/18 11:59:37;;;;;;;;;;;;;;;15.44;43.43;96613.66;4224821;28;6482;-70
2023/03/18 12:01:51;;;;;;;;;;;;;;;15.44;43.51;96611.00;4231752;28;5824;-71
2023/03/18 12:04:36;;;;;;;;;;;;;;;15.44;43.33;96608.34;4232802;28;5856;-71
2023/03/18 12:06:43;;;;;;;;;;;;;;;15.42;43.30;96594.44;4193513;28;5643;-71
2023/03/18 12:08:55;;;;;;;;;;;;;;;15.46;43.37;96595.59;4232539;28;5764;-70
2023/03/18 12:11:08;;;;;;;;;;;;;;;15.51;43.17;96595.69;4232552;28;5681;-69
2023/03/18 12:13:25;;;;;;;;;;;;;;;15.55;43.31;96588.09;4225322;28;5721;-70
2023/03/18 12:15:41;;;;;;;;;;;;;;;15.60;43.12;96586.38;4224760;28;5737;-71
2023/03/18 12:17:55;;;;;;;;;;;;;;;15.60;43.11;96586.38;4236493;28;5808;-71
2023/03/18 12:20:22;;;;;;;;;;;;;;;15.60;42.75;96586.38;4236334;28;5807;-72
2023/03/18 12:22:40;;;;;;;;;;;;;;;15.67;42.92;96572.97;4235133;28;5836;-72
2023/03/18 12:25:02;;;;;;;;;;;;;;;15.68;42.80;96577.25;4226707;27;5638;-73
2023/03/18 12:27:15;;;;;;;;;;;;;;;15.72;42.50;96578.38;4237471;28;5661;-73
2023/03/18 12:29:57;;;;;;;;;;;;;;;15.72;42.48;96579.19;4236887;28;5654;-72
2023/03/18 12:32:13;;;;;;;;;;;;;;;15.75;42.13;96582.47;4226199;28;5646;-73
2023/03/18 12:34:34;;;;;;;;;;;;;;;15.76;42.00;96578.75;4237537;28;5667;-73
2023/03/18 12:36:54;;;;;;;;;;;;;;;15.78;41.76;96576.66;4220422;28;6359;-73
2023/03/18 12:39:36;;;;;;;;;;;;;;;15.87;41.76;96580.63;4220451;28;5728;-74
2023/03/18 12:41:53;;;;;;;;;;;;;;;15.93;41.54;96577.00;4231261;28;5646;-72
2023/03/18 12:44:08;;;;;;;;;;;;;;;15.95;41.56;96569.59;4236887;28;5840;-72
2023/03/18 12:46:22;;;;;;;;;;;;;;;16.01;41.48;96572.16;4237046;27;5768;-74
2023/03/18 12:48:31;;;;;;;;;;;;;;;16.02;41.49;96563.09;4237320;28;5633;-73
2023/03/18 12:50:50;;;;;;;;;;;;;;;16.03;41.51;96569.25;4236726;28;5647;-73
2023/03/18 12:52:58;;;;;;;;;;;;;;;16.00;41.38;96562.53;4236666;28;5705;-73
2023/03/18 12:55:05;;;;;;;;;;;;;;;15.99;41.37;96568.91;4236505;27;5724;-73
2023/03/18 12:57:14;;;;;;;;;;;;;;;16.01;41.26;96566.00;4236373;28;5662;-73
2023/03/18 12:59:24;;;;;;;;;;;;;;;15.98;41.17;96555.81;4236174;28;5666;-74
2023/03/18 13:01:34;;;;;;;;;;;;;;;15.97;41.07;96559.53;4235515;28;5650;-73
2023/03/18 13:03:40;;;;;;;;;;;;;;;15.98;40.98;96555.81;4236325;28;5655;-73
2023/03/18 13:05:49;;;;;;;;;;;;;;;15.96;41.10;96560.53;4236757;28;5661;-73
2023/03/18 13:08:06;;;;;;;;;;;;;;;15.95;40.95;96561.59;4236282;28;5781;-73
2023/03/18 13:10:19;;;;;;;;;;;;;;;15.93;41.07;96566.34;4236300;28;5654;-73
2023/03/18 13:12:29;;;;;;;;;;;;;;;15.94;41.04;96559.97;4219543;28;5726;-73
2023/03/18 13:14:43;;;;;;;;;;;;;;;15.95;40.74;96554.41;4236160;28;6332;-73
2023/03/18 13:16:48;;;;;;;;;;;;;;;15.98;40.71;96561.97;4236306;28;5657;-74
2023/03/18 13:18:55;;;;;;;;;;;;;;;16.00;40.86;96553.72;4236219;28;5654;-74
2023/03/18 13:20:59;;;;;;;;;;;;;;;16.02;40.52;96551.63;4236422;28;5847;-73
2023/03/18 13:23:25;;;;;;;;;;;;;;;16.06;40.77;96552.78;4235965;28;5646;-74
2023/03/18 13:25:39;;;;;;;;;;;;;;;16.07;40.56;96549.06;4236123;27;5654;-74
2023/03/18 13:27:55;;;;;;;;;;;;;;;16.08;40.25;96549.88;4235751;28;5654;-74
2023/03/18 13:30:06;;;;;;;;;;;;;;;16.05;40.39;96548.50;4236174;28;5669;-73
2023/03/18 13:32:30;;;;;;;;;;;;;;;16.07;40.40;96553.59;4236029;28;5646;-73
2023/03/18 13:34:53;;;;;;;;;;;;;;;16.07;40.19;96549.06;4235751;28;5780;-74
2023/03/18 13:37:18;;;;;;;;;;;;;;;16.08;40.26;96548.00;4235870;28;5634;-73
2023/03/18 13:39:34;;;;;;;;;;;;;;;16.08;40.21;96545.34;4235806;28;5758;-74
2023/03/18 13:41:56;;;;;;;;;;;;;;;16.08;40.13;96548.00;4236412;27;5721;-74
2023/03/18 13:44:06;;;;;;;;;;;;;;;16.08;39.75;96542.69;4235356;28;5753;-74
2023/03/18 13:46:19;;;;;;;;;;;;;;;16.11;39.84;96549.44;4234605;28;5666;-74
2023/03/18 13:48:29;;;;;;;;;;;;;;;16.10;39.69;96532.63;4235737;28;5804;-73
2023/03/18 13:50:36;;;;;;;;;;;;;;;16.09;39.77;96530.19;4235868;28;5642;-73
2023/03/18 13:52:43;;;;;;;;;;;;;;;16.08;39.40;96532.03;4235797;28;5654;-73
2023/03/18 13:54:46;;;;;;;;;;;;;;;16.06;39.56;96536.78;4235715;28;5810;-74
2023/03/18 13:56:54;;;;;;;;;;;;;;;16.04;39.48;96541.53;4235364;28;5717;-73
2023/03/18 13:58:57;;;;;;;;;;;;;;;16.02;39.41;96544.44;4233997;28;5617;-73
2023/03/18 14:01:31;;;;;;;;;;;;;;;16.05;39.37;96545.00;4235294;28;5736;-73
2023/03/18 14:03:53;;;;;;;;;;;;;;;16.05;39.46;96548.50;4235459;27;5773;-73
2023/03/18 14:06:19;;;;;;;;;;;;;;;16.05;39.29;96534.34;4235722;28;5784;-73
2023/03/18 14:08:45;;;;;;;;;;;;;;;16.06;39.32;96536.78;4226670;28;6637;-73
2023/03/18 14:10:48;;;;;;;;;;;;;;;16.07;39.30;96527.72;4235197;28;5900;-73
2023/03/18 14:12:51;;;;;;;;;;;;;;;16.08;39.15;96523.22;4235366;28;5084;-73
2023/03/18 14:14:57;;;;;;;;;;;;;;;16.08;39.05;96524.00;4234870;28;7747;-73
2023/03/18 14:17:01;;;;;;;;;;;;;;;16.10;39.02;96521.94;4235296;28;5772;-72
2023/03/18 14:19:16;;;;;;;;;;;;;;;16.13;38.72;96521.47;4235498;28;5827;-73
2023/03/18 14:21:24;;;;;;;;;;;;;;;16.16;38.77;96514.84;4235548;28;5721;-73
2023/03/18 14:23:34;;;;;;;;;;;;;;;16.19;38.96;96517.84;4235288;28;5654;-73
2023/03/18 14:25:41;;;;;;;;;;;;;;;16.21;38.90;96518.47;4234993;28;5921;-72
2023/03/18 14:27:46;;;;;;;;;;;;;;;16.21;38.62;96518.47;4234961;28;5777;-72
2023/03/18 14:29:49;;;;;;;;;;;;;;;16.23;38.52;96519.03;4234627;27;5842;-73
2023/03/18 14:31:57;;;;;;;;;;;;;;;16.27;38.61;96514.03;4234955;27;5705;-72
2023/03/18 14:34:23;;;;;;;;;;;;;;;16.29;38.53;96515.41;4235070;28;5638;-73
2023/03/18 14:36:47;;;;;;;;;;;;;;;16.28;38.59;96513.78;4234120;28;5642;-72
2023/03/18 14:39:00;;;;;;;;;;;;;;;16.27;38.48;96514.84;4235308;27;5646;-73
2023/03/18 14:41:11;;;;;;;;;;;;;;;16.29;38.57;96515.41;4235061;28;5657;-73
2023/03/18 14:43:20;;;;;;;;;;;;;;;16.33;38.40;96514.94;4234487;28;5651;-72
2023/03/18 14:45:27;;;;;;;;;;;;;;;16.35;38.37;96512.84;4218055;28;5726;-73
2023/03/18 14:47:41;;;;;;;;;;;;;;;16.38;38.38;96504.38;4219114;28;5756;-73
2023/03/18 14:49:50;;;;;;;;;;;;;;;16.38;38.53;96507.84;4234570;28;5662;-74
2023/03/18 14:51:54;;;;;;;;;;;;;;;16.43;38.33;96502.63;4234775;28;5638;-73
2023/03/18 14:54:03;;;;;;;;;;;;;;;16.42;38.40;96494.84;4234615;28;5661;-74
2023/03/18 14:56:17;;;;;;;;;;;;;;;16.43;38.20;96493.81;4234520;28;5666;-73
2023/03/18 14:58:21;;;;;;;;;;;;;;;16.42;38.16;96493.00;4234406;28;5792;-73
2023/03/18 15:00:24;;;;;;;;;;;;;;;16.44;38.18;96495.44;4218462;28;5757;-74
2023/03/18 15:02:32;;;;;;;;;;;;;;;16.45;38.15;96502.38;4234700;28;5804;-74
2023/03/18 15:04:35;;;;;;;;;;;;;;;16.44;37.95;96495.44;4234579;28;5794;-74
2023/03/18 15:06:41;;;;;;;;;;;;;;;16.44;37.93;96500.78;4234616;28;5678;-73
2023/03/18 15:08:50;;;;;;;;;;;;;;;16.43;37.93;96494.63;4234583;28;5642;-73
2023/03/18 15:10:54;;;;;;;;;;;;;;;16.44;38.05;96495.44;4234673;27;5673;-74
2023/03/18 15:12:58;;;;;;;;;;;;;;;16.43;37.98;96499.16;4234586;28;5733;-73
2023/03/18 15:15:02;;;;;;;;;;;;;;;16.43;38.03;96491.16;4234403;28;6403;-72
2023/03/18 15:17:14;;;;;;;;;;;;;;;16.40;37.77;96489.75;4234522;27;5638;-73
2023/03/18 15:19:18;;;;;;;;;;;;;;;16.42;37.91;96481.50;4234578;27;5646;-73
2023/03/18 15:21:27;;;;;;;;;;;;;;;16.40;37.94;96483.59;4226000;28;5673;-74
2023/03/18 15:23:35;;;;;;;;;;;;;;;16.39;37.80;96487.31;4234370;28;5663;-73
2023/03/18 15:25:41;;;;;;;;;;;;;;;16.36;37.78;96485.94;4234292;28;5662;-74
2023/03/18 15:27:44;;;;;;;;;;;;;;;16.35;37.80;96488.84;4234190;28;5748;-73
2023/03/18 15:29:52;;;;;;;;;;;;;;;16.34;37.71;96489.91;4233884;28;5667;-74
2023/03/18 15:32:07;;;;;;;;;;;;;;;16.32;37.69;96486.66;4234678;28;5723;-72
2023/03/18 15:34:17;;;;;;;;;;;;;;;16.32;37.79;96497.31;4234414;28;5821;-73
2023/03/18 15:36:20;;;;;;;;;;;;;;;16.32;37.64;96492.81;4234483;28;5642;-73
2023/03/18 15:38:27;;;;;;;;;;;;;;;16.34;37.55;96495.22;4184286;28;5702;-72
2023/03/18 15:40:35;;;;;;;;;;;;;;;16.32;37.65;96487.47;4193598;28;5700;-73
2023/03/18 15:42:38;;;;;;;;;;;;;;;16.33;37.60;96490.94;4200678;28;5692;-74
2023/03/18 15:44:41;;;;;;;;;;;;;;;16.32;37.68;96492.81;4200403;28;5922;-73
2023/03/18 15:46:47;;;;;;;;;;;;;;;16.33;37.77;96493.59;4200677;28;5708;-74
2023/03/18 15:48:54;;;;;;;;;;;;;;;16.35;37.38;96494.19;4202325;28;5716;-73
2023/03/18 15:51:00;;;;;;;;;;;;;;;16.33;37.47;96502.41;4204539;28;5692;-76
2023/03/18 15:53:18;;;;;;;;;;;;;;;16.33;37.23;96504.28;4204911;28;5689;-73
2023/03/18 15:55:28;;;;;;;;;;;;;;;16.35;37.32;96496.84;4197927;28;5819;-73
2023/03/18 15:57:36;;;;;;;;;;;;;;;16.34;37.46;96496.03;4190218;28;5693;-74
2023/03/18 15:59:39;;;;;;;;;;;;;;;16.35;37.42;96494.19;4198811;28;5820;-73
2023/03/18 16:01:42;;;;;;;;;;;;;;;16.34;37.51;96501.38;4193903;28;5692;-73
2023/03/18 16:03:46;;;;;;;;;;;;;;;16.34;37.54;96500.56;4194951;28;5783;-72
2023/03/18 16:05:50;;;;;;;;;;;;;;;16.33;37.48;96504.28;4187664;28;5815;-71
2023/03/18 16:07:53;;;;;;;;;;;;;;;16.32;37.57;96502.66;4196077;28;5696;-71
2023/03/18 16:09:58;;;;;;;;;;;;;;;16.30;37.86;96501.00;4200438;28;5704;-71
2023/03/18 16:12:11;;;;;;;;;;;;;;;16.29;38.04;96503.91;4190841;28;5713;-71
2023/03/18 16:14:19;;;;;;;;;;;;;;;16.28;37.97;96502.31;4200023;28;5705;-71
2023/03/18 16:16:27;;;;;;;;;;;;;;;16.27;38.22;96506.81;4202142;28;5680;-71
2023/03/18 16:18:31;;;;;;;;;;;;;;;16.26;38.19;96507.06;4201627;28;5768;-70
2023/03/18 16:20:34;;;;;;;;;;;;;;;16.24;38.31;96509.16;4201947;28;5796;-72
2023/03/18 16:22:38;;;;;;;;;;;;;;;16.23;38.40;96518.22;4201927;28;5684;-73
2023/03/18 16:24:42;;;;;;;;;;;;;;;16.21;38.20;96513.13;4196982;28;6015;-71
2023/03/18 16:26:45;;;;;;;;;;;;;;;16.20;38.18;96516.03;4201328;28;5689;-71
2023/03/18 16:28:48;;;;;;;;;;;;;;;16.19;38.26;96519.72;4201478;28;6552;-72
2023/03/18 16:30:54;;;;;;;;;;;;;;;16.19;38.39;96522.38;4201676;28;5959;-71
2023/03/18 16:32:58;;;;;;;;;;;;;;;16.18;38.15;96526.09;4193505;28;5772;-70
2023/03/18 16:35:02;;;;;;;;;;;;;;;16.16;38.32;96529.00;4201659;28;5504;-70
2023/03/18 16:37:05;;;;;;;;;;;;;;;16.16;38.25;96531.66;4212675;28;7766;-70
2023/03/18 16:39:15;;;;;;;;;;;;;;;16.15;38.43;96532.72;4233828;28;5806;-70
2023/03/18 16:41:18;;;;;;;;;;;;;;;16.14;38.30;96538.28;4235118;28;5677;-70
2023/03/18 16:43:22;;;;;;;;;;;;;;;16.12;38.39;96543.84;4234654;28;5658;-70
2023/03/18 16:45:28;;;;;;;;;;;;;;;16.10;38.44;96545.94;4234983;28;5740;-70
2023/03/18 16:47:34;;;;;;;;;;;;;;;16.08;38.67;96556.00;4235409;28;5638;-70
2023/03/18 16:49:37;;;;;;;;;;;;;;;16.08;38.55;96545.34;4234966;28;5800;-71
2023/03/18 16:51:40;;;;;;;;;;;;;;;16.06;38.81;96555.44;4235068;28;5792;-70
2023/03/18 16:53:43;;;;;;;;;;;;;;;16.05;38.80;96556.50;4235045;28;6335;-70
2023/03/18 16:55:48;;;;;;;;;;;;;;;16.02;38.50;96556.97;4234779;27;5745;-69
2023/03/18 16:57:52;;;;;;;;;;;;;;;16.01;38.87;96560.69;4230067;28;5721;-69
2023/03/18 16:59:55;;;;;;;;;;;;;;;16.00;38.74;96553.72;4233831;27;5662;-70
2023/03/18 17:01:58;;;;;;;;;;;;;;;15.99;38.88;96558.25;4234763;28;5773;-71
2023/03/18 17:04:14;;;;;;;;;;;;;;;15.98;38.69;96556.63;4234472;28;5649;-69
2023/03/18 17:06:17;;;;;;;;;;;;;;;15.96;38.71;96557.88;4234995;27;5828;-70
2023/03/18 17:08:21;;;;;;;;;;;;;;;15.94;38.80;96565.31;4234948;28;5829;-69
2023/03/18 17:10:26;;;;;;;;;;;;;;;15.94;38.72;96560.78;4235031;28;5657;-69
2023/03/18 17:12:29;;;;;;;;;;;;;;;15.92;38.57;96565.53;4234559;28;5659;-71
2023/03/18 17:14:36;;;;;;;;;;;;;;;15.90;38.73;96564.16;4234248;28;5649;-71
2023/03/18 17:16:39;;;;;;;;;;;;;;;15.89;38.48;96570.53;4234403;28;5662;-70
2023/03/18 17:18:42;;;;;;;;;;;;;;;15.88;38.40;96567.06;4234580;27;5737;-70
2023/03/18 17:20:47;;;;;;;;;;;;;;;15.87;38.56;96577.97;4234768;27;5740;-69
2023/03/18 17:22:50;;;;;;;;;;;;;;;15.87;38.61;96584.09;4234529;28;6808;-69
2023/03/18 17:24:52;;;;;;;;;;;;;;;15.88;38.57;96584.91;4234390;28;5681;-70
2023/03/18 17:26:55;;;;;;;;;;;;;;;15.86;38.29;96584.34;4224163;28;5653;-70
2023/03/18 17:28:58;;;;;;;;;;;;;;;15.87;38.60;96580.63;4227667;28;5672;-69
2023/03/18 17:31:02;;;;;;;;;;;;;;;15.87;38.28;96580.63;4233632;28;5713;-72
2023/03/18 17:33:20;;;;;;;;;;;;;;;15.88;38.30;96579.56;4229964;27;6678;-73
2023/03/18 17:35:23;;;;;;;;;;;;;;;15.87;38.31;96586.75;4230694;28;5802;-73
2023/03/18 17:37:28;;;;;;;;;;;;;;;15.88;38.29;96588.38;4233194;28;5811;-73
2023/03/18 17:39:31;;;;;;;;;;;;;;;15.87;38.47;96585.94;4232593;28;5761;-72
2023/03/18 17:41:34;;;;;;;;;;;;;;;15.87;38.29;96591.28;4229843;28;5658;-72
2023/03/18 17:43:37;;;;;;;;;;;;;;;15.85;38.45;96577.34;4231224;28;5741;-72
2023/03/18 17:45:40;;;;;;;;;;;;;;;15.84;38.30;96581.06;4228728;28;5091;-73
2023/03/18 17:47:43;;;;;;;;;;;;;;;15.84;38.34;96581.88;4234593;28;6388;-73
2023/03/18 17:49:45;;;;;;;;;;;;;;;15.85;38.46;96582.69;4227903;28;6345;-73
2023/03/18 17:51:49;;;;;;;;;;;;;;;15.84;38.31;96583.72;4232503;27;5721;-80
2023/03/18 17:53:57;;;;;;;;;;;;;;;15.84;38.38;96581.06;4234580;28;5733;-80
2023/03/18 17:56:01;;;;;;;;;;;;;;;15.83;38.13;96590.91;4230232;28;5778;-80
2023/03/18 17:58:10;;;;;;;;;;;;;;;15.83;38.20;96590.91;4230604;27;5696;-75
2023/03/18 18:00:16;;;;;;;;;;;;;;;15.81;38.31;96587.69;4221866;27;5719;-76
2023/03/18 18:02:20;;;;;;;;;;;;;;;15.80;38.29;96591.38;4227628;27;5744;-76
2023/03/18 18:04:25;;;;;;;;;;;;;;;15.82;38.32;96604.47;4233566;28;5850;-77
2023/03/18 18:06:29;;;;;;;;;;;;;;;15.81;38.12;96597.53;4226987;27;5741;-66
2023/03/18 18:08:33;;;;;;;;;;;;;;;15.81;38.34;96602.84;4231018;28;5654;-75
2023/03/18 18:10:37;;;;;;;;;;;;;;;15.79;38.29;96594.28;4231296;28;5650;-79
2023/03/18 18:12:41;;;;;;;;;;;;;;;15.79;38.27;96604.94;4233033;28;5657;-71
2023/03/18 18:14:44;;;;;;;;;;;;;;;15.78;38.32;96598.00;4233764;28;5634;-80
2023/03/18 18:16:48;;;;;;;;;;;;;;;15.76;38.12;96595.56;4225127;28;5882;-76
2023/03/18 18:18:51;;;;;;;;;;;;;;;15.75;38.29;96601.94;4233667;28;5734;-76
2023/03/18 18:20:57;;;;;;;;;;;;;;;15.74;38.41;96602.94;4231778;28;5624;-74
2023/03/18 18:23:01;;;;;;;;;;;;;;;15.72;38.27;96599.72;4233816;28;5704;-71
2023/03/18 18:25:05;;;;;;;;;;;;;;;15.71;38.26;96612.22;4228121;28;5613;-74
2023/03/18 18:27:11;;;;;;;;;;;;;;;15.69;38.14;96611.66;4231330;28;5768;-73
2023/03/18 18:29:19;;;;;;;;;;;;;;;15.69;38.32;96614.31;4228234;28;5659;-72
2023/03/18 18:31:22;;;;;;;;;;;;;;;15.69;38.19;96614.31;4228003;28;5679;-70
2023/03/18 18:33:25;;;;;;;;;;;;;;;15.67;38.17;96613.75;4231807;28;5773;-77
2023/03/18 18:35:28;;;;;;;;;;;;;;;15.66;38.38;96619.31;4224156;28;5612;-68
2023/03/18 18:37:32;;;;;;;;;;;;;;;15.65;38.40;96621.16;4230891;28;5753;-62
2023/03/18 18:39:35;;;;;;;;;;;;;;;15.63;38.34;96622.44;4235125;27;5804;-64
2023/03/18 18:41:38;;;;;;;;;;;;;;;15.62;38.43;96623.44;4232143;28;5756;-65
2023/03/18 18:43:42;;;;;;;;;;;;;;;15.60;38.17;96623.69;4232919;28;5931;-70
2023/03/18 18:45:45;;;;;;;;;;;;;;;15.56;38.24;96627.81;4231342;28;5733;-76
2023/03/18 18:47:48;;;;;;;;;;;;;;;15.56;38.47;96627.81;4232826;28;5853;-74
2023/03/18 18:49:51;;;;;;;;;;;;;;;15.55;38.26;96631.53;4231186;28;5646;-77
2023/03/18 18:51:55;;;;;;;;;;;;;;;15.58;38.14;96635.56;4232783;28;5649;-77
2023/03/18 18:53:58;;;;;;;;;;;;;;;15.57;38.37;96641.94;4228258;28;5750;-71